sensor_id;sensor_type;location;lat;lon;timestamp;P1;durP1;ratioP1;P2;durP2;ratioP2
7645;SDS011;3864;48.180;14.178;2023-12-28T00:02:24;9.80;;;6.60;;
7645;SDS011;3864;48.180;14.178;2023-12-28T00:04:51;10.68;;;6.60;;
7645;SDS011;3864;48.180;14.178;2023-12-28T00:07:20;10.40;;;6.93;;
7645;SDS011;3864;48.180;14.178;2023-12-28T00:09:47;12.00;;;6.72;;
7645;SDS011;3864;48.180;14.178;2023-12-28T00:12:14;12.65;;;7.25;;
7645;SDS011;3864;48.180;14.178;2023-12-28T00:17:08;13.25;;;7.78;;
7645;SDS011;3864;48.180;14.178;2023-12-28T00:22:03;11.10;;;7.13;;
7645;SDS011;3864;48.180;14.178;2023-12-28T00:24:31;14.77;;;8.38;;
7645;SDS011;3864;48.180;14.178;2023-12-28T00:26:58;13.07;;;8.18;;
7645;SDS011;3864;48.180;14.178;2023-12-28T00:29:25;16.92;;;9.38;;
7645;SDS011;3864;48.180;14.178;2023-12-28T00:31:53;17.25;;;9.68;;
7645;SDS011;3864;48.180;14.178;2023-12-28T00:34:20;19.38;;;10.18;;
7645;SDS011;3864;48.180;14.178;2023-12-28T00:39:14;13.05;;;6.75;;
7645;SDS011;3864;48.180;14.178;2023-12-28T00:44:10;9.07;;;6.15;;
7645;SDS011;3864;48.180;14.178;2023-12-28T00:49:04;12.55;;;7.25;;
7645;SDS011;3864;48.180;14.178;2023-12-28T00:51:31;11.65;;;7.70;;
7645;SDS011;3864;48.180;14.178;2023-12-28T00:53:58;16.88;;;8.48;;
7645;SDS011;3864;48.180;14.178;2023-12-28T00:56:25;16.33;;;9.40;;
7645;SDS011;3864;48.180;14.178;2023-12-28T00:58:54;18.15;;;9.88;;
7645;SDS011;3864;48.180;14.178;2023-12-28T01:01:21;16.83;;;9.85;;
7645;SDS011;3864;48.180;14.178;2023-12-28T01:03:48;13.15;;;8.25;;
7645;SDS011;3864;48.180;14.178;2023-12-28T01:06:15;13.35;;;7.68;;
7645;SDS011;3864;48.180;14.178;2023-12-28T01:08:42;14.77;;;9.05;;
7645;SDS011;3864;48.180;14.178;2023-12-28T01:11:10;15.77;;;8.90;;
7645;SDS011;3864;48.180;14.178;2023-12-28T01:13:37;12.52;;;8.23;;
7645;SDS011;3864;48.180;14.178;2023-12-28T01:16:07;12.85;;;7.95;;
7645;SDS011;3864;48.180;14.178;2023-12-28T01:18:34;13.15;;;7.57;;
7645;SDS011;3864;48.180;14.178;2023-12-28T01:21:01;13.75;;;8.60;;
7645;SDS011;3864;48.180;14.178;2023-12-28T01:23:28;13.52;;;8.15;;
7645;SDS011;3864;48.180;14.178;2023-12-28T01:25:56;15.02;;;7.80;;
7645;SDS011;3864;48.180;14.178;2023-12-28T01:28:23;16.65;;;9.13;;
7645;SDS011;3864;48.180;14.178;2023-12-28T01:30:50;13.75;;;8.95;;
7645;SDS011;3864;48.180;14.178;2023-12-28T01:35:46;14.00;;;8.00;;
7645;SDS011;3864;48.180;14.178;2023-12-28T01:38:13;16.05;;;9.65;;
7645;SDS011;3864;48.180;14.178;2023-12-28T01:40:43;14.40;;;8.73;;
7645;SDS011;3864;48.180;14.178;2023-12-28T01:43:11;15.45;;;9.20;;
7645;SDS011;3864;48.180;14.178;2023-12-28T01:45:38;12.90;;;8.65;;
7645;SDS011;3864;48.180;14.178;2023-12-28T01:48:05;14.52;;;8.52;;
7645;SDS011;3864;48.180;14.178;2023-12-28T01:50:34;14.18;;;8.60;;
7645;SDS011;3864;48.180;14.178;2023-12-28T01:53:02;12.32;;;7.47;;
7645;SDS011;3864;48.180;14.178;2023-12-28T01:55:30;11.48;;;7.90;;
7645;SDS011;3864;48.180;14.178;2023-12-28T01:57:58;15.07;;;7.75;;
7645;SDS011;3864;48.180;14.178;2023-12-28T02:02:52;11.85;;;7.43;;
7645;SDS011;3864;48.180;14.178;2023-12-28T02:07:48;11.90;;;7.07;;
7645;SDS011;3864;48.180;14.178;2023-12-28T02:10:15;12.82;;;8.38;;
7645;SDS011;3864;48.180;14.178;2023-12-28T02:12:42;14.77;;;8.95;;
7645;SDS011;3864;48.180;14.178;2023-12-28T02:15:10;14.63;;;8.57;;
7645;SDS011;3864;48.180;14.178;2023-12-28T02:17:39;18.92;;;9.23;;
7645;SDS011;3864;48.180;14.178;2023-12-28T02:20:13;14.68;;;9.18;;
7645;SDS011;3864;48.180;14.178;2023-12-28T02:22:41;17.25;;;9.80;;
7645;SDS011;3864;48.180;14.178;2023-12-28T02:25:11;18.45;;;9.73;;
7645;SDS011;3864;48.180;14.178;2023-12-28T02:27:38;18.58;;;10.55;;
7645;SDS011;3864;48.180;14.178;2023-12-28T02:30:07;20.10;;;10.77;;
7645;SDS011;3864;48.180;14.178;2023-12-28T02:32:40;22.17;;;11.25;;
7645;SDS011;3864;48.180;14.178;2023-12-28T02:35:16;23.60;;;11.93;;
7645;SDS011;3864;48.180;14.178;2023-12-28T02:37:46;18.58;;;10.55;;
7645;SDS011;3864;48.180;14.178;2023-12-28T02:40:18;20.10;;;11.68;;
7645;SDS011;3864;48.180;14.178;2023-12-28T02:42:47;22.80;;;11.80;;
7645;SDS011;3864;48.180;14.178;2023-12-28T02:45:14;24.65;;;12.30;;
7645;SDS011;3864;48.180;14.178;2023-12-28T02:47:41;21.75;;;12.20;;
7645;SDS011;3864;48.180;14.178;2023-12-28T02:50:09;20.60;;;11.13;;
7645;SDS011;3864;48.180;14.178;2023-12-28T02:55:03;17.83;;;9.73;;
7645;SDS011;3864;48.180;14.178;2023-12-28T02:57:33;19.60;;;11.00;;
7645;SDS011;3864;48.180;14.178;2023-12-28T03:00:04;19.83;;;10.63;;
7645;SDS011;3864;48.180;14.178;2023-12-28T03:02:33;18.85;;;11.40;;
7645;SDS011;3864;48.180;14.178;2023-12-28T03:05:01;19.08;;;11.40;;
7645;SDS011;3864;48.180;14.178;2023-12-28T03:09:55;17.23;;;10.02;;
7645;SDS011;3864;48.180;14.178;2023-12-28T03:14:51;17.48;;;9.73;;
7645;SDS011;3864;48.180;14.178;2023-12-28T03:17:18;13.20;;;8.85;;
7645;SDS011;3864;48.180;14.178;2023-12-28T03:19:45;14.88;;;9.05;;
7645;SDS011;3864;48.180;14.178;2023-12-28T03:22:12;14.00;;;9.20;;
7645;SDS011;3864;48.180;14.178;2023-12-28T03:24:39;16.98;;;9.70;;
7645;SDS011;3864;48.180;14.178;2023-12-28T03:27:06;16.30;;;9.85;;
7645;SDS011;3864;48.180;14.178;2023-12-28T03:29:33;18.60;;;9.40;;
7645;SDS011;3864;48.180;14.178;2023-12-28T03:32:02;16.88;;;10.20;;
7645;SDS011;3864;48.180;14.178;2023-12-28T03:34:29;15.75;;;10.57;;
7645;SDS011;3864;48.180;14.178;2023-12-28T03:36:56;17.70;;;10.63;;
7645;SDS011;3864;48.180;14.178;2023-12-28T03:39:24;18.58;;;11.10;;
7645;SDS011;3864;48.180;14.178;2023-12-28T03:41:51;17.65;;;10.57;;
7645;SDS011;3864;48.180;14.178;2023-12-28T03:44:18;17.23;;;10.82;;
7645;SDS011;3864;48.180;14.178;2023-12-28T03:46:47;16.60;;;10.23;;
7645;SDS011;3864;48.180;14.178;2023-12-28T03:49:16;16.02;;;9.93;;
7645;SDS011;3864;48.180;14.178;2023-12-28T03:51:43;17.50;;;10.02;;
7645;SDS011;3864;48.180;14.178;2023-12-28T03:54:10;16.73;;;9.85;;
7645;SDS011;3864;48.180;14.178;2023-12-28T03:56:37;16.75;;;9.85;;
7645;SDS011;3864;48.180;14.178;2023-12-28T03:59:06;14.43;;;8.35;;
7645;SDS011;3864;48.180;14.178;2023-12-28T04:01:33;16.55;;;10.23;;
7645;SDS011;3864;48.180;14.178;2023-12-28T04:04:00;16.92;;;9.32;;
7645;SDS011;3864;48.180;14.178;2023-12-28T04:06:29;15.80;;;9.07;;
7645;SDS011;3864;48.180;14.178;2023-12-28T04:08:56;15.00;;;10.13;;
7645;SDS011;3864;48.180;14.178;2023-12-28T04:13:50;15.07;;;9.23;;
7645;SDS011;3864;48.180;14.178;2023-12-28T04:18:44;13.85;;;9.35;;
7645;SDS011;3864;48.180;14.178;2023-12-28T04:21:12;16.45;;;10.20;;
7645;SDS011;3864;48.180;14.178;2023-12-28T04:23:41;15.88;;;10.55;;
7645;SDS011;3864;48.180;14.178;2023-12-28T04:26:08;14.48;;;9.98;;
7645;SDS011;3864;48.180;14.178;2023-12-28T04:31:03;13.10;;;8.60;;
7645;SDS011;3864;48.180;14.178;2023-12-28T04:33:31;13.85;;;8.98;;
7645;SDS011;3864;48.180;14.178;2023-12-28T04:36:00;12.73;;;8.45;;
7645;SDS011;3864;48.180;14.178;2023-12-28T04:38:28;14.02;;;8.70;;
7645;SDS011;3864;48.180;14.178;2023-12-28T04:40:58;13.05;;;7.85;;
7645;SDS011;3864;48.180;14.178;2023-12-28T04:43:25;12.73;;;8.77;;
7645;SDS011;3864;48.180;14.178;2023-12-28T04:45:52;13.82;;;8.10;;
7645;SDS011;3864;48.180;14.178;2023-12-28T04:48:19;14.05;;;8.43;;
7645;SDS011;3864;48.180;14.178;2023-12-28T04:50:48;13.43;;;8.32;;
7645;SDS011;3864;48.180;14.178;2023-12-28T04:53:17;14.65;;;8.13;;
7645;SDS011;3864;48.180;14.178;2023-12-28T04:55:44;13.55;;;9.00;;
7645;SDS011;3864;48.180;14.178;2023-12-28T04:58:13;13.73;;;8.68;;
7645;SDS011;3864;48.180;14.178;2023-12-28T05:00:40;11.77;;;7.75;;
7645;SDS011;3864;48.180;14.178;2023-12-28T05:03:07;13.27;;;8.32;;
7645;SDS011;3864;48.180;14.178;2023-12-28T05:05:34;16.08;;;8.18;;
7645;SDS011;3864;48.180;14.178;2023-12-28T05:08:01;13.82;;;7.80;;
7645;SDS011;3864;48.180;14.178;2023-12-28T05:10:28;14.15;;;7.95;;
7645;SDS011;3864;48.180;14.178;2023-12-28T05:15:23;16.05;;;7.85;;
7645;SDS011;3864;48.180;14.178;2023-12-28T05:17:50;14.25;;;7.28;;
7645;SDS011;3864;48.180;14.178;2023-12-28T05:20:17;11.93;;;7.63;;
7645;SDS011;3864;48.180;14.178;2023-12-28T05:22:44;12.70;;;8.10;;
7645;SDS011;3864;48.180;14.178;2023-12-28T05:25:11;13.35;;;8.18;;
7645;SDS011;3864;48.180;14.178;2023-12-28T05:27:38;11.68;;;7.32;;
7645;SDS011;3864;48.180;14.178;2023-12-28T05:30:07;14.73;;;9.48;;
7645;SDS011;3864;48.180;14.178;2023-12-28T05:32:37;17.85;;;11.25;;
7645;SDS011;3864;48.180;14.178;2023-12-28T05:35:04;18.15;;;11.48;;
7645;SDS011;3864;48.180;14.178;2023-12-28T05:37:32;14.80;;;10.82;;
7645;SDS011;3864;48.180;14.178;2023-12-28T05:39:59;16.95;;;10.20;;
7645;SDS011;3864;48.180;14.178;2023-12-28T05:44:53;14.15;;;8.88;;
7645;SDS011;3864;48.180;14.178;2023-12-28T05:49:48;14.13;;;8.68;;
7645;SDS011;3864;48.180;14.178;2023-12-28T05:52:16;14.25;;;9.57;;
7645;SDS011;3864;48.180;14.178;2023-12-28T05:54:44;15.77;;;9.68;;
7645;SDS011;3864;48.180;14.178;2023-12-28T05:57:10;16.42;;;10.50;;
7645;SDS011;3864;48.180;14.178;2023-12-28T05:59:37;15.60;;;9.52;;
7645;SDS011;3864;48.180;14.178;2023-12-28T06:02:06;16.08;;;10.10;;
7645;SDS011;3864;48.180;14.178;2023-12-28T06:04:33;16.23;;;9.23;;
7645;SDS011;3864;48.180;14.178;2023-12-28T06:07:03;18.63;;;9.90;;
7645;SDS011;3864;48.180;14.178;2023-12-28T06:09:30;15.13;;;9.82;;
7645;SDS011;3864;48.180;14.178;2023-12-28T06:11:58;17.60;;;10.27;;
7645;SDS011;3864;48.180;14.178;2023-12-28T06:14:25;15.75;;;9.70;;
7645;SDS011;3864;48.180;14.178;2023-12-28T06:16:52;22.48;;;14.52;;
7645;SDS011;3864;48.180;14.178;2023-12-28T06:19:19;22.75;;;15.88;;
7645;SDS011;3864;48.180;14.178;2023-12-28T06:21:47;19.77;;;13.13;;
7645;SDS011;3864;48.180;14.178;2023-12-28T06:24:15;14.77;;;10.07;;
7645;SDS011;3864;48.180;14.178;2023-12-28T06:26:43;14.95;;;9.18;;
7645;SDS011;3864;48.180;14.178;2023-12-28T06:29:10;19.75;;;12.73;;
7645;SDS011;3864;48.180;14.178;2023-12-28T06:34:04;16.45;;;9.80;;
7645;SDS011;3864;48.180;14.178;2023-12-28T06:36:32;15.10;;;9.88;;
7645;SDS011;3864;48.180;14.178;2023-12-28T06:38:59;15.55;;;10.30;;
7645;SDS011;3864;48.180;14.178;2023-12-28T06:43:55;19.30;;;9.77;;
7645;SDS011;3864;48.180;14.178;2023-12-28T06:46:22;17.27;;;10.52;;
7645;SDS011;3864;48.180;14.178;2023-12-28T06:48:49;15.18;;;9.50;;
7645;SDS011;3864;48.180;14.178;2023-12-28T06:53:44;13.73;;;9.20;;
7645;SDS011;3864;48.180;14.178;2023-12-28T06:56:11;19.08;;;9.75;;
7645;SDS011;3864;48.180;14.178;2023-12-28T06:58:40;19.98;;;9.85;;
7645;SDS011;3864;48.180;14.178;2023-12-28T07:01:07;16.23;;;9.90;;
7645;SDS011;3864;48.180;14.178;2023-12-28T07:06:01;17.98;;;8.63;;
7645;SDS011;3864;48.180;14.178;2023-12-28T07:08:29;17.48;;;9.57;;
7645;SDS011;3864;48.180;14.178;2023-12-28T07:10:57;21.90;;;9.43;;
7645;SDS011;3864;48.180;14.178;2023-12-28T07:13:24;17.88;;;9.27;;
7645;SDS011;3864;48.180;14.178;2023-12-28T07:15:52;14.73;;;9.00;;
7645;SDS011;3864;48.180;14.178;2023-12-28T07:18:20;28.25;;;10.55;;
7645;SDS011;3864;48.180;14.178;2023-12-28T07:23:14;18.75;;;9.05;;
7645;SDS011;3864;48.180;14.178;2023-12-28T07:25:41;15.95;;;9.85;;
7645;SDS011;3864;48.180;14.178;2023-12-28T07:28:08;17.17;;;10.20;;
7645;SDS011;3864;48.180;14.178;2023-12-28T07:33:04;16.23;;;8.45;;
7645;SDS011;3864;48.180;14.178;2023-12-28T07:35:31;16.90;;;9.27;;
7645;SDS011;3864;48.180;14.178;2023-12-28T07:37:58;15.68;;;9.27;;
7645;SDS011;3864;48.180;14.178;2023-12-28T07:40:25;19.63;;;9.98;;
7645;SDS011;3864;48.180;14.178;2023-12-28T07:42:52;15.77;;;10.55;;
7645;SDS011;3864;48.180;14.178;2023-12-28T07:45:19;19.40;;;9.80;;
7645;SDS011;3864;48.180;14.178;2023-12-28T07:47:48;17.30;;;10.27;;
7645;SDS011;3864;48.180;14.178;2023-12-28T07:50:18;19.13;;;9.60;;
7645;SDS011;3864;48.180;14.178;2023-12-28T07:52:46;30.08;;;11.00;;
7645;SDS011;3864;48.180;14.178;2023-12-28T07:55:12;20.88;;;11.15;;
7645;SDS011;3864;48.180;14.178;2023-12-28T07:57:39;22.45;;;11.52;;
7645;SDS011;3864;48.180;14.178;2023-12-28T08:00:07;18.70;;;12.05;;
7645;SDS011;3864;48.180;14.178;2023-12-28T08:02:34;26.45;;;11.52;;
7645;SDS011;3864;48.180;14.178;2023-12-28T08:05:02;29.10;;;11.50;;
7645;SDS011;3864;48.180;14.178;2023-12-28T08:07:31;19.83;;;10.57;;
7645;SDS011;3864;48.180;14.178;2023-12-28T08:09:58;17.25;;;10.85;;
7645;SDS011;3864;48.180;14.178;2023-12-28T08:12:25;29.58;;;11.95;;
7645;SDS011;3864;48.180;14.178;2023-12-28T08:14:53;18.55;;;10.77;;
7645;SDS011;3864;48.180;14.178;2023-12-28T08:17:20;25.33;;;12.27;;
7645;SDS011;3864;48.180;14.178;2023-12-28T08:22:14;21.08;;;10.82;;
7645;SDS011;3864;48.180;14.178;2023-12-28T08:24:43;17.23;;;9.80;;
7645;SDS011;3864;48.180;14.178;2023-12-28T08:27:10;15.60;;;10.25;;
7645;SDS011;3864;48.180;14.178;2023-12-28T08:29:37;23.20;;;12.85;;
7645;SDS011;3864;48.180;14.178;2023-12-28T08:32:06;21.98;;;12.52;;
7645;SDS011;3864;48.180;14.178;2023-12-28T08:34:34;23.17;;;12.82;;
7645;SDS011;3864;48.180;14.178;2023-12-28T08:37:01;23.05;;;12.65;;
7645;SDS011;3864;48.180;14.178;2023-12-28T08:39:28;19.23;;;12.93;;
7645;SDS011;3864;48.180;14.178;2023-12-28T08:41:56;21.80;;;11.77;;
7645;SDS011;3864;48.180;14.178;2023-12-28T08:44:24;27.33;;;13.90;;
7645;SDS011;3864;48.180;14.178;2023-12-28T08:46:51;21.48;;;12.95;;
7645;SDS011;3864;48.180;14.178;2023-12-28T08:49:17;18.67;;;11.05;;
7645;SDS011;3864;48.180;14.178;2023-12-28T08:51:44;18.70;;;11.98;;
7645;SDS011;3864;48.180;14.178;2023-12-28T08:56:39;18.30;;;10.77;;
7645;SDS011;3864;48.180;14.178;2023-12-28T08:59:07;19.60;;;11.10;;
7645;SDS011;3864;48.180;14.178;2023-12-28T09:01:34;16.00;;;10.32;;
7645;SDS011;3864;48.180;14.178;2023-12-28T09:04:02;17.38;;;11.02;;
7645;SDS011;3864;48.180;14.178;2023-12-28T09:08:56;17.60;;;10.18;;
7645;SDS011;3864;48.180;14.178;2023-12-28T09:11:23;15.95;;;10.85;;
7645;SDS011;3864;48.180;14.178;2023-12-28T09:13:50;20.88;;;11.57;;
7645;SDS011;3864;48.180;14.178;2023-12-28T09:16:18;20.95;;;11.00;;
7645;SDS011;3864;48.180;14.178;2023-12-28T09:18:45;17.33;;;11.00;;
7645;SDS011;3864;48.180;14.178;2023-12-28T09:21:15;21.65;;;12.55;;
7645;SDS011;3864;48.180;14.178;2023-12-28T09:23:42;19.10;;;11.55;;
7645;SDS011;3864;48.180;14.178;2023-12-28T09:26:09;19.95;;;12.43;;
7645;SDS011;3864;48.180;14.178;2023-12-28T09:28:36;22.63;;;12.05;;
7645;SDS011;3864;48.180;14.178;2023-12-28T09:31:03;19.05;;;11.85;;
7645;SDS011;3864;48.180;14.178;2023-12-28T09:33:33;21.60;;;13.90;;
7645;SDS011;3864;48.180;14.178;2023-12-28T09:36:02;27.02;;;16.33;;
7645;SDS011;3864;48.180;14.178;2023-12-28T09:38:30;29.55;;;16.40;;
7645;SDS011;3864;48.180;14.178;2023-12-28T09:40:57;27.50;;;16.40;;
7645;SDS011;3864;48.180;14.178;2023-12-28T09:43:31;24.50;;;13.68;;
7645;SDS011;3864;48.180;14.178;2023-12-28T09:46:06;25.73;;;15.25;;
7645;SDS011;3864;48.180;14.178;2023-12-28T09:48:36;25.20;;;14.93;;
7645;SDS011;3864;48.180;14.178;2023-12-28T09:51:04;23.85;;;14.20;;
7645;SDS011;3864;48.180;14.178;2023-12-28T09:53:31;23.88;;;14.63;;
7645;SDS011;3864;48.180;14.178;2023-12-28T09:55:59;28.92;;;14.88;;
7645;SDS011;3864;48.180;14.178;2023-12-28T09:58:28;28.02;;;15.70;;
7645;SDS011;3864;48.180;14.178;2023-12-28T10:00:57;30.35;;;16.23;;
7645;SDS011;3864;48.180;14.178;2023-12-28T10:03:26;27.20;;;16.23;;
7645;SDS011;3864;48.180;14.178;2023-12-28T10:05:55;27.77;;;16.42;;
7645;SDS011;3864;48.180;14.178;2023-12-28T10:08:22;27.70;;;14.70;;
7645;SDS011;3864;48.180;14.178;2023-12-28T10:10:49;24.85;;;14.98;;
7645;SDS011;3864;48.180;14.178;2023-12-28T10:13:19;29.85;;;16.80;;
7645;SDS011;3864;48.180;14.178;2023-12-28T10:15:46;29.52;;;17.50;;
7645;SDS011;3864;48.180;14.178;2023-12-28T10:18:16;28.60;;;15.95;;
7645;SDS011;3864;48.180;14.178;2023-12-28T10:20:48;29.77;;;16.58;;
7645;SDS011;3864;48.180;14.178;2023-12-28T10:23:17;34.10;;;16.73;;
7645;SDS011;3864;48.180;14.178;2023-12-28T10:25:46;34.35;;;18.20;;
7645;SDS011;3864;48.180;14.178;2023-12-28T10:28:15;43.72;;;19.23;;
7645;SDS011;3864;48.180;14.178;2023-12-28T10:30:44;37.30;;;18.88;;
7645;SDS011;3864;48.180;14.178;2023-12-28T10:33:11;37.13;;;19.38;;
7645;SDS011;3864;48.180;14.178;2023-12-28T10:35:39;45.78;;;20.85;;
7645;SDS011;3864;48.180;14.178;2023-12-28T10:40:35;33.50;;;17.58;;
7645;SDS011;3864;48.180;14.178;2023-12-28T10:43:06;34.65;;;17.83;;
7645;SDS011;3864;48.180;14.178;2023-12-28T10:45:34;35.90;;;18.45;;
7645;SDS011;3864;48.180;14.178;2023-12-28T10:48:06;39.17;;;19.73;;
7645;SDS011;3864;48.180;14.178;2023-12-28T10:50:38;41.45;;;19.85;;
7645;SDS011;3864;48.180;14.178;2023-12-28T10:53:15;39.35;;;20.67;;
7645;SDS011;3864;48.180;14.178;2023-12-28T10:56:09;34.42;;;18.38;;
7645;SDS011;3864;48.180;14.178;2023-12-28T10:58:46;36.28;;;20.48;;
7645;SDS011;3864;48.180;14.178;2023-12-28T11:01:16;42.88;;;21.23;;
7645;SDS011;3864;48.180;14.178;2023-12-28T11:03:51;34.33;;;19.70;;
7645;SDS011;3864;48.180;14.178;2023-12-28T11:06:25;34.80;;;19.70;;
7645;SDS011;3864;48.180;14.178;2023-12-28T11:08:53;38.05;;;21.08;;
7645;SDS011;3864;48.180;14.178;2023-12-28T11:11:23;44.22;;;21.52;;
7645;SDS011;3864;48.180;14.178;2023-12-28T11:13:53;33.50;;;19.20;;
7645;SDS011;3864;48.180;14.178;2023-12-28T11:16:21;39.03;;;19.50;;
7645;SDS011;3864;48.180;14.178;2023-12-28T11:18:49;37.45;;;21.10;;
7645;SDS011;3864;48.180;14.178;2023-12-28T11:21:17;38.90;;;20.23;;
7645;SDS011;3864;48.180;14.178;2023-12-28T11:23:45;39.80;;;20.30;;
7645;SDS011;3864;48.180;14.178;2023-12-28T11:26:15;36.00;;;20.45;;
7645;SDS011;3864;48.180;14.178;2023-12-28T11:28:44;38.63;;;20.73;;
7645;SDS011;3864;48.180;14.178;2023-12-28T11:31:13;36.63;;;20.02;;
7645;SDS011;3864;48.180;14.178;2023-12-28T11:33:44;38.25;;;20.38;;
7645;SDS011;3864;48.180;14.178;2023-12-28T11:36:12;33.17;;;19.55;;
7645;SDS011;3864;48.180;14.178;2023-12-28T11:38:47;34.10;;;19.23;;
7645;SDS011;3864;48.180;14.178;2023-12-28T11:41:16;34.35;;;19.08;;
7645;SDS011;3864;48.180;14.178;2023-12-28T11:43:52;33.78;;;20.02;;
7645;SDS011;3864;48.180;14.178;2023-12-28T11:46:20;32.35;;;18.55;;
7645;SDS011;3864;48.180;14.178;2023-12-28T11:48:48;33.65;;;18.58;;
7645;SDS011;3864;48.180;14.178;2023-12-28T11:53:42;29.02;;;18.35;;
7645;SDS011;3864;48.180;14.178;2023-12-28T11:56:11;34.22;;;20.67;;
7645;SDS011;3864;48.180;14.178;2023-12-28T11:58:42;37.90;;;20.23;;
7645;SDS011;3864;48.180;14.178;2023-12-28T12:01:12;38.05;;;19.23;;
7645;SDS011;3864;48.180;14.178;2023-12-28T12:03:39;39.45;;;21.25;;
7645;SDS011;3864;48.180;14.178;2023-12-28T12:06:06;37.03;;;20.60;;
7645;SDS011;3864;48.180;14.178;2023-12-28T12:08:33;36.65;;;20.90;;
7645;SDS011;3864;48.180;14.178;2023-12-28T12:13:29;34.28;;;19.00;;
7645;SDS011;3864;48.180;14.178;2023-12-28T12:15:56;41.20;;;22.75;;
7645;SDS011;3864;48.180;14.178;2023-12-28T12:18:25;44.00;;;22.85;;
7645;SDS011;3864;48.180;14.178;2023-12-28T12:20:52;42.25;;;23.45;;
7645;SDS011;3864;48.180;14.178;2023-12-28T12:23:20;39.60;;;22.38;;
7645;SDS011;3864;48.180;14.178;2023-12-28T12:25:47;36.67;;;21.52;;
7645;SDS011;3864;48.180;14.178;2023-12-28T12:30:48;32.38;;;19.27;;
7645;SDS011;3864;48.180;14.178;2023-12-28T12:33:16;38.25;;;19.60;;
7645;SDS011;3864;48.180;14.178;2023-12-28T12:35:45;39.22;;;20.27;;
7645;SDS011;3864;48.180;14.178;2023-12-28T12:38:12;37.35;;;20.33;;
7645;SDS011;3864;48.180;14.178;2023-12-28T12:40:39;38.88;;;22.02;;
7645;SDS011;3864;48.180;14.178;2023-12-28T12:43:06;34.33;;;18.77;;
7645;SDS011;3864;48.180;14.178;2023-12-28T12:45:34;32.10;;;19.98;;
7645;SDS011;3864;48.180;14.178;2023-12-28T12:48:01;35.70;;;20.00;;
7645;SDS011;3864;48.180;14.178;2023-12-28T12:50:29;35.78;;;20.90;;
7645;SDS011;3864;48.180;14.178;2023-12-28T12:53:00;32.72;;;19.83;;
7645;SDS011;3864;48.180;14.178;2023-12-28T12:55:27;35.17;;;19.83;;
7645;SDS011;3864;48.180;14.178;2023-12-28T13:00:21;36.03;;;19.90;;
7645;SDS011;3864;48.180;14.178;2023-12-28T13:02:49;39.58;;;20.27;;
7645;SDS011;3864;48.180;14.178;2023-12-28T13:05:18;36.03;;;21.75;;
7645;SDS011;3864;48.180;14.178;2023-12-28T13:07:45;40.50;;;21.55;;
7645;SDS011;3864;48.180;14.178;2023-12-28T13:10:14;37.80;;;20.85;;
7645;SDS011;3864;48.180;14.178;2023-12-28T13:12:41;36.33;;;21.10;;
7645;SDS011;3864;48.180;14.178;2023-12-28T13:15:08;30.85;;;19.58;;
7645;SDS011;3864;48.180;14.178;2023-12-28T13:17:36;31.10;;;20.02;;
7645;SDS011;3864;48.180;14.178;2023-12-28T13:20:04;28.33;;;19.20;;
7645;SDS011;3864;48.180;14.178;2023-12-28T13:22:32;39.63;;;20.52;;
7645;SDS011;3864;48.180;14.178;2023-12-28T13:24:59;30.02;;;18.25;;
7645;SDS011;3864;48.180;14.178;2023-12-28T13:27:28;36.72;;;19.48;;
7645;SDS011;3864;48.180;14.178;2023-12-28T13:29:56;36.03;;;20.25;;
7645;SDS011;3864;48.180;14.178;2023-12-28T13:32:23;35.80;;;19.73;;
7645;SDS011;3864;48.180;14.178;2023-12-28T13:34:50;29.80;;;18.35;;
7645;SDS011;3864;48.180;14.178;2023-12-28T13:37:17;31.80;;;18.70;;
7645;SDS011;3864;48.180;14.178;2023-12-28T13:39:44;28.25;;;17.95;;
7645;SDS011;3864;48.180;14.178;2023-12-28T13:42:12;30.25;;;18.45;;
7645;SDS011;3864;48.180;14.178;2023-12-28T13:47:08;27.00;;;16.10;;
7645;SDS011;3864;48.180;14.178;2023-12-28T13:49:35;24.90;;;16.27;;
7645;SDS011;3864;48.180;14.178;2023-12-28T13:52:03;27.85;;;17.02;;
7645;SDS011;3864;48.180;14.178;2023-12-28T13:54:30;27.80;;;17.30;;
7645;SDS011;3864;48.180;14.178;2023-12-28T13:56:57;27.13;;;16.73;;
7645;SDS011;3864;48.180;14.178;2023-12-28T13:59:25;27.73;;;16.95;;
7645;SDS011;3864;48.180;14.178;2023-12-28T14:04:20;23.08;;;14.88;;
7645;SDS011;3864;48.180;14.178;2023-12-28T14:06:47;26.52;;;16.13;;
7645;SDS011;3864;48.180;14.178;2023-12-28T14:11:45;28.20;;;16.80;;
7645;SDS011;3864;48.180;14.178;2023-12-28T14:14:12;27.77;;;16.00;;
7645;SDS011;3864;48.180;14.178;2023-12-28T14:16:39;26.95;;;16.83;;
7645;SDS011;3864;48.180;14.178;2023-12-28T14:19:08;25.45;;;17.05;;
7645;SDS011;3864;48.180;14.178;2023-12-28T14:21:36;24.23;;;16.45;;
7645;SDS011;3864;48.180;14.178;2023-12-28T14:24:04;26.05;;;17.15;;
7645;SDS011;3864;48.180;14.178;2023-12-28T14:26:32;24.00;;;16.27;;
7645;SDS011;3864;48.180;14.178;2023-12-28T14:29:00;25.02;;;16.05;;
7645;SDS011;3864;48.180;14.178;2023-12-28T14:31:30;24.85;;;15.55;;
7645;SDS011;3864;48.180;14.178;2023-12-28T14:33:58;24.48;;;15.25;;
7645;SDS011;3864;48.180;14.178;2023-12-28T14:36:30;28.38;;;17.73;;
7645;SDS011;3864;48.180;14.178;2023-12-28T14:38:58;23.73;;;16.52;;
7645;SDS011;3864;48.180;14.178;2023-12-28T14:41:26;25.58;;;17.00;;
7645;SDS011;3864;48.180;14.178;2023-12-28T14:43:52;30.83;;;18.08;;
7645;SDS011;3864;48.180;14.178;2023-12-28T14:46:19;26.27;;;16.92;;
7645;SDS011;3864;48.180;14.178;2023-12-28T14:48:46;25.10;;;16.02;;
7645;SDS011;3864;48.180;14.178;2023-12-28T14:51:13;30.55;;;16.75;;
7645;SDS011;3864;48.180;14.178;2023-12-28T14:53:42;26.35;;;16.35;;
7645;SDS011;3864;48.180;14.178;2023-12-28T14:56:09;28.30;;;16.38;;
7645;SDS011;3864;48.180;14.178;2023-12-28T14:58:36;24.40;;;15.23;;
7645;SDS011;3864;48.180;14.178;2023-12-28T15:01:04;26.17;;;16.08;;
7645;SDS011;3864;48.180;14.178;2023-12-28T15:03:32;23.02;;;14.40;;
7645;SDS011;3864;48.180;14.178;2023-12-28T15:08:26;23.08;;;13.10;;
7645;SDS011;3864;48.180;14.178;2023-12-28T15:13:22;19.75;;;13.32;;
7645;SDS011;3864;48.180;14.178;2023-12-28T15:15:50;23.48;;;14.45;;
7645;SDS011;3864;48.180;14.178;2023-12-28T15:18:18;24.25;;;15.38;;
7645;SDS011;3864;48.180;14.178;2023-12-28T15:20:45;25.55;;;15.35;;
7645;SDS011;3864;48.180;14.178;2023-12-28T15:23:13;26.73;;;16.88;;
7645;SDS011;3864;48.180;14.178;2023-12-28T15:25:43;26.20;;;16.85;;
7645;SDS011;3864;48.180;14.178;2023-12-28T15:28:13;24.52;;;15.15;;
7645;SDS011;3864;48.180;14.178;2023-12-28T15:30:40;24.27;;;15.15;;
7645;SDS011;3864;48.180;14.178;2023-12-28T15:33:10;25.33;;;15.75;;
7645;SDS011;3864;48.180;14.178;2023-12-28T15:35:37;24.90;;;15.38;;
7645;SDS011;3864;48.180;14.178;2023-12-28T15:40:32;24.25;;;14.63;;
7645;SDS011;3864;48.180;14.178;2023-12-28T15:42:59;23.42;;;14.30;;
7645;SDS011;3864;48.180;14.178;2023-12-28T15:45:28;26.33;;;14.27;;
7645;SDS011;3864;48.180;14.178;2023-12-28T15:47:56;26.20;;;14.43;;
7645;SDS011;3864;48.180;14.178;2023-12-28T15:50:23;22.52;;;14.05;;
7645;SDS011;3864;48.180;14.178;2023-12-28T15:55:17;22.15;;;14.48;;
7645;SDS011;3864;48.180;14.178;2023-12-28T15:57:44;23.02;;;15.27;;
7645;SDS011;3864;48.180;14.178;2023-12-28T16:00:12;27.27;;;16.00;;
7645;SDS011;3864;48.180;14.178;2023-12-28T16:02:41;23.58;;;14.27;;
7645;SDS011;3864;48.180;14.178;2023-12-28T16:05:08;27.33;;;14.43;;
7645;SDS011;3864;48.180;14.178;2023-12-28T16:07:35;21.98;;;14.77;;
7645;SDS011;3864;48.180;14.178;2023-12-28T16:10:03;21.58;;;13.23;;
7645;SDS011;3864;48.180;14.178;2023-12-28T16:12:31;22.67;;;13.30;;
7645;SDS011;3864;48.180;14.178;2023-12-28T16:14:59;21.60;;;14.05;;
7645;SDS011;3864;48.180;14.178;2023-12-28T16:17:27;21.85;;;13.93;;